createdAt,value
2019-03-26T00:00:15.088Z,7.39
2019-03-26T00:01:15.049Z,7.28
2019-03-26T00:02:15.045Z,7.36
2019-03-26T00:03:15.027Z,7.31
2019-03-26T00:04:15.018Z,7.33
2019-03-26T00:05:15.008Z,7.22
2019-03-26T00:06:15.014Z,7.28
2019-03-26T00:07:14.986Z,7.28
2019-03-26T00:08:14.976Z,7.26
2019-03-26T00:09:14.971Z,7.29
2019-03-26T00:10:14.956Z,7.33
2019-03-26T00:11:14.961Z,7.33
2019-03-26T00:12:14.931Z,7.28
2019-03-26T00:13:14.918Z,7.25
2019-03-26T00:14:14.908Z,7.26
2019-03-26T00:15:14.898Z,7.25
2019-03-26T00:16:14.937Z,7.29
2019-03-26T00:17:14.878Z,7.21
2019-03-26T00:18:14.869Z,7.22
2019-03-26T00:19:14.851Z,7.31
2019-03-26T00:20:14.846Z,7.31
2019-03-26T00:21:14.849Z,7.22
2019-03-26T00:22:14.819Z,7.19
2019-03-26T00:23:14.819Z,7.19
2019-03-26T00:24:14.800Z,7.24
2019-03-26T00:25:14.796Z,7.24
2019-03-26T00:26:14.802Z,7.19
2019-03-26T00:27:14.768Z,7.22
2019-03-26T00:28:14.752Z,7.22
2019-03-26T00:29:14.744Z,7.18
2019-03-26T00:30:14.734Z,7.16
2019-03-26T00:31:14.754Z,7.22
2019-03-26T00:32:14.710Z,7.19
2019-03-26T00:33:14.700Z,7.19
2019-03-26T00:34:19.552Z,7.19
2019-03-26T00:35:14.681Z,7.21
2019-03-26T00:36:14.666Z,7.16
2019-03-26T00:37:14.684Z,7.24
2019-03-26T00:38:14.656Z,7.21
2019-03-26T00:39:14.644Z,7.21
2019-03-26T00:40:14.632Z,7.18
2019-03-26T00:41:14.615Z,7.19
2019-03-26T00:42:14.628Z,7.13
2019-03-26T00:43:14.591Z,7.10
2019-03-26T00:44:14.579Z,7.13
2019-03-26T00:45:14.575Z,7.13
2019-03-26T00:46:14.566Z,7.22
2019-03-26T00:47:14.577Z,7.21
2019-03-26T00:48:14.550Z,7.22
2019-03-26T00:49:14.528Z,7.21
2019-03-26T00:50:14.520Z,7.16
2019-03-26T00:51:14.505Z,7.19
2019-03-26T00:52:14.550Z,7.06
2019-03-26T00:53:14.486Z,7.11
2019-03-26T00:54:14.474Z,7.10
2019-03-26T00:55:22.651Z,7.18
2019-03-26T00:56:15.451Z,7.15
2019-03-26T00:57:14.440Z,7.11
2019-03-26T00:58:14.480Z,7.11
2019-03-26T00:59:14.419Z,7.08
2019-03-26T01:00:14.408Z,7.13
2019-03-26T01:01:14.401Z,7.06
2019-03-26T01:02:14.396Z,7.13
2019-03-26T01:03:14.392Z,7.08
2019-03-26T01:04:14.367Z,7.10
2019-03-26T01:05:14.357Z,7.16
2019-03-26T01:06:14.344Z,7.10
2019-03-26T01:07:14.334Z,7.08
2019-03-26T01:08:14.343Z,7.08
2019-03-26T01:09:14.307Z,7.11
2019-03-26T01:10:14.314Z,7.15
2019-03-26T01:11:14.299Z,7.18
2019-03-26T01:12:14.277Z,7.10
2019-03-26T01:13:14.296Z,7.19
2019-03-26T01:14:14.253Z,7.18
2019-03-26T01:15:14.251Z,7.11
2019-03-26T01:16:14.247Z,7.08
2019-03-26T01:17:14.222Z,7.11
2019-03-26T01:18:14.219Z,7.08
2019-03-26T01:19:14.222Z,7.13
2019-03-26T01:20:14.193Z,7.10
2019-03-26T01:21:14.184Z,7.08
2019-03-26T01:22:14.185Z,7.16
2019-03-26T01:23:14.161Z,7.13
2019-03-26T01:24:14.180Z,7.04
2019-03-26T01:25:14.139Z,7.06
2019-03-26T01:26:14.132Z,7.06
2019-03-26T01:27:14.124Z,7.10
2019-03-26T01:28:14.103Z,7.13
2019-03-26T01:29:14.130Z,7.08
2019-03-26T01:30:14.084Z,7.11
2019-03-26T01:31:14.068Z,7.18
2019-03-26T01:32:14.059Z,7.19
2019-03-26T01:33:14.056Z,7.15
2019-03-26T01:34:14.058Z,7.19
2019-03-26T01:35:14.027Z,7.19
2019-03-26T01:36:14.014Z,7.19
2019-03-26T01:37:14.004Z,7.15
2019-03-26T01:38:14.002Z,7.13
2019-03-26T01:39:13.985Z,7.22
2019-03-26T01:40:13.990Z,7.21
2019-03-26T01:41:13.962Z,7.24
2019-03-26T01:42:13.949Z,7.15
2019-03-26T01:43:13.936Z,7.07
2019-03-26T01:44:13.932Z,7.08
2019-03-26T01:45:13.946Z,7.10
2019-03-26T01:46:13.913Z,7.08
2019-03-26T01:47:13.894Z,7.06
2019-03-26T01:48:13.892Z,7.06
2019-03-26T01:49:13.872Z,7.03
2019-03-26T01:50:13.986Z,6.99
2019-03-26T01:51:13.857Z,7.00
2019-03-26T01:52:13.854Z,7.03
2019-03-26T01:53:13.840Z,7.07
2019-03-26T01:54:13.833Z,6.97
2019-03-26T01:55:13.809Z,6.93
2019-03-26T01:56:13.816Z,7.01
2019-03-26T01:57:13.791Z,7.00
2019-03-26T01:58:13.773Z,6.99
2019-03-26T01:59:13.774Z,6.92
2019-03-26T02:00:13.754Z,7.03
2019-03-26T02:01:13.763Z,6.93
2019-03-26T02:02:13.732Z,6.92
2019-03-26T02:03:13.719Z,6.97
2019-03-26T02:04:13.734Z,7.00
2019-03-26T02:05:13.712Z,6.97
2019-03-26T02:06:13.708Z,6.86
2019-03-26T02:07:13.676Z,6.88
2019-03-26T02:08:13.664Z,6.97
2019-03-26T02:09:13.656Z,6.92
2019-03-26T02:10:13.655Z,6.91
2019-03-26T02:11:13.653Z,6.89
2019-03-26T02:12:13.624Z,6.88
2019-03-26T02:13:13.631Z,6.86
2019-03-26T02:14:13.601Z,7.00
2019-03-26T02:15:13.590Z,6.86
2019-03-26T02:16:13.604Z,6.91
2019-03-26T02:17:13.574Z,6.81
2019-03-26T02:18:13.572Z,6.81
2019-03-26T02:19:13.564Z,6.86
2019-03-26T02:20:13.542Z,6.81
2019-03-26T02:21:13.533Z,6.83
2019-03-26T02:22:13.540Z,6.83
2019-03-26T02:23:13.506Z,6.89
2019-03-26T02:24:13.507Z,6.86
2019-03-26T02:25:13.491Z,6.85
2019-03-26T02:26:13.497Z,6.86
2019-03-26T02:27:13.465Z,6.96
2019-03-26T02:28:13.454Z,6.89
2019-03-26T02:29:13.449Z,6.85
2019-03-26T02:30:13.442Z,6.89
2019-03-26T02:31:13.458Z,6.99
2019-03-26T02:32:13.414Z,6.91
2019-03-26T02:33:13.398Z,6.88
2019-03-26T02:34:13.391Z,6.91
2019-03-26T02:35:18.388Z,6.83
2019-03-26T02:36:14.398Z,6.86
2019-03-26T02:37:13.355Z,6.83
2019-03-26T02:38:13.346Z,6.91
2019-03-26T02:39:13.331Z,6.85
2019-03-26T02:40:13.321Z,6.88
2019-03-26T02:41:13.325Z,6.83
2019-03-26T02:42:13.401Z,6.81
2019-03-26T02:43:13.293Z,6.88
2019-03-26T02:44:13.277Z,6.85
2019-03-26T02:45:13.272Z,6.92
2019-03-26T02:46:13.254Z,6.86
2019-03-26T02:47:13.387Z,6.83
2019-03-26T02:48:13.231Z,6.83
2019-03-26T02:49:13.231Z,6.93
2019-03-26T02:50:13.211Z,6.83
2019-03-26T02:51:13.210Z,6.81
2019-03-26T02:52:13.210Z,6.85
2019-03-26T02:53:13.216Z,6.89
2019-03-26T02:54:13.169Z,6.86
2019-03-26T02:55:13.157Z,6.88
2019-03-26T02:56:13.145Z,6.89
2019-03-26T02:57:13.151Z,6.99
2019-03-26T02:58:13.136Z,7.00
2019-03-26T02:59:13.126Z,6.96
2019-03-26T03:00:13.101Z,6.88
2019-03-26T03:01:13.097Z,6.89
2019-03-26T03:02:13.102Z,7.01
2019-03-26T03:03:13.066Z,6.97
2019-03-26T03:04:13.067Z,6.99
2019-03-26T03:05:13.052Z,6.92
2019-03-26T03:06:13.035Z,7.03
2019-03-26T03:07:13.024Z,6.91
2019-03-26T03:08:13.034Z,6.99
2019-03-26T03:09:21.559Z,6.97
2019-03-26T03:10:20.530Z,6.96
2019-03-26T03:11:12.982Z,6.97
2019-03-26T03:12:12.978Z,6.88
2019-03-26T03:13:21.729Z,6.85
2019-03-26T03:14:12.948Z,6.93
2019-03-26T03:15:20.477Z,6.86
2019-03-26T03:16:12.928Z,6.99
2019-03-26T03:17:20.461Z,6.97
2019-03-26T03:18:12.930Z,7.01
2019-03-26T03:19:15.811Z,6.89
2019-03-26T03:20:12.882Z,6.92
2019-03-26T03:21:12.879Z,6.89
2019-03-26T03:22:12.866Z,6.93
2019-03-26T03:23:12.856Z,6.99
2019-03-26T03:24:12.859Z,6.85
2019-03-26T03:25:12.833Z,6.88
2019-03-26T03:26:12.819Z,6.86
2019-03-26T03:27:12.831Z,6.86
2019-03-26T03:28:12.823Z,6.91
2019-03-26T03:29:12.809Z,6.86
2019-03-26T03:30:12.774Z,6.74
2019-03-26T03:31:12.768Z,6.71
2019-03-26T03:32:12.755Z,6.81
2019-03-26T03:33:12.743Z,6.85
2019-03-26T03:34:12.779Z,6.79
2019-03-26T03:35:12.744Z,6.82
2019-03-26T03:36:12.723Z,6.89
2019-03-26T03:37:12.699Z,6.81
2019-03-26T03:38:12.695Z,6.78
2019-03-26T03:39:12.706Z,6.78
2019-03-26T03:40:12.676Z,6.81
2019-03-26T03:41:12.655Z,6.83
2019-03-26T03:42:12.653Z,6.82
2019-03-26T03:43:12.644Z,6.83
2019-03-26T03:44:12.645Z,6.82
2019-03-26T03:45:12.620Z,6.78
2019-03-26T03:46:12.618Z,6.86
2019-03-26T03:47:12.598Z,6.67
2019-03-26T03:48:12.581Z,6.83
2019-03-26T03:49:12.593Z,6.79
2019-03-26T03:50:12.561Z,6.79
2019-03-26T03:51:12.558Z,6.81
2019-03-26T03:52:12.539Z,6.81
2019-03-26T03:53:12.526Z,6.83
2019-03-26T03:54:12.520Z,6.81
2019-03-26T03:55:12.527Z,6.91
2019-03-26T03:56:12.496Z,6.89
2019-03-26T03:57:12.485Z,6.89
2019-03-26T03:58:12.482Z,6.88
2019-03-26T03:59:12.477Z,6.83
2019-03-26T04:00:12.472Z,6.91
2019-03-26T04:01:12.443Z,6.86
2019-03-26T04:02:12.431Z,6.91
2019-03-26T04:03:12.420Z,6.89
2019-03-26T04:04:12.422Z,6.96
2019-03-26T04:05:12.426Z,6.86
2019-03-26T04:06:12.389Z,6.82
2019-03-26T04:07:12.381Z,6.88
2019-03-26T04:08:12.376Z,6.91
2019-03-26T04:09:12.353Z,6.82
2019-03-26T04:10:12.361Z,6.91
2019-03-26T04:11:12.339Z,6.83
2019-03-26T04:12:12.330Z,6.88
2019-03-26T04:13:12.319Z,6.83
2019-03-26T04:14:12.303Z,6.85
2019-03-26T04:15:12.316Z,6.75
2019-03-26T04:16:12.279Z,6.81
2019-03-26T04:17:12.267Z,6.75
2019-03-26T04:18:12.260Z,6.70
2019-03-26T04:19:12.289Z,6.75
2019-03-26T04:20:12.241Z,6.83
2019-03-26T04:21:12.245Z,6.75
2019-03-26T04:22:12.218Z,6.75
2019-03-26T04:23:12.207Z,6.79
2019-03-26T04:24:12.200Z,6.71
2019-03-26T04:25:12.185Z,6.81
2019-03-26T04:26:12.207Z,6.81
2019-03-26T04:27:12.168Z,6.79
2019-03-26T04:28:12.150Z,6.85
2019-03-26T04:29:12.141Z,6.82
2019-03-26T04:30:12.161Z,6.73
2019-03-26T04:31:12.146Z,6.71
2019-03-26T04:32:12.120Z,6.81
2019-03-26T04:33:12.102Z,6.81
2019-03-26T04:34:12.084Z,6.71
2019-03-26T04:35:12.079Z,6.71
2019-03-26T04:36:24.898Z,6.70
2019-03-26T04:37:13.053Z,6.85
2019-03-26T04:38:12.050Z,6.79
2019-03-26T04:39:12.034Z,6.73
2019-03-26T04:40:12.062Z,6.75
2019-03-26T04:41:12.010Z,6.70
2019-03-26T04:42:12.014Z,6.71
2019-03-26T04:43:12.000Z,6.82
2019-03-26T04:44:11.974Z,6.70
2019-03-26T04:45:11.965Z,6.73
2019-03-26T04:46:11.959Z,6.68
2019-03-26T04:47:11.966Z,6.81
2019-03-26T04:48:11.949Z,6.85
2019-03-26T04:49:19.457Z,6.71
2019-03-26T04:50:19.448Z,6.79
2019-03-26T04:51:19.435Z,6.67
2019-03-26T04:52:20.845Z,6.67
2019-03-26T04:53:19.414Z,6.71
2019-03-26T04:54:19.401Z,6.68
2019-03-26T04:55:20.406Z,6.71
2019-03-26T04:56:19.393Z,6.65
2019-03-26T04:57:20.446Z,6.71
2019-03-26T04:58:19.372Z,6.73
2019-03-26T04:59:19.351Z,6.81
2019-03-26T05:00:19.349Z,6.71
2019-03-26T05:01:19.331Z,6.81
2019-03-26T05:02:20.543Z,6.82
2019-03-26T05:03:19.301Z,6.73
2019-03-26T05:04:19.320Z,6.82
2019-03-26T05:05:19.287Z,6.79
2019-03-26T05:06:19.307Z,6.79
2019-03-26T05:07:19.269Z,6.75
2019-03-26T05:08:20.664Z,6.75
2019-03-26T05:09:19.253Z,6.75
2019-03-26T05:10:19.227Z,6.75
2019-03-26T05:11:20.740Z,6.75
2019-03-26T05:12:19.213Z,6.70
2019-03-26T05:13:20.288Z,6.74
2019-03-26T05:14:19.184Z,6.79
2019-03-26T05:15:19.173Z,6.78
2019-03-26T05:16:11.625Z,6.67
2019-03-26T05:17:11.614Z,6.71
2019-03-26T05:18:11.604Z,6.71
2019-03-26T05:19:11.611Z,6.68
2019-03-26T05:20:11.584Z,6.75
2019-03-26T05:21:11.573Z,6.82
2019-03-26T05:22:23.505Z,6.82
2019-03-26T05:23:12.549Z,6.73
2019-03-26T05:24:11.558Z,6.86
2019-03-26T05:25:11.536Z,6.70
2019-03-26T05:26:11.527Z,6.71
2019-03-26T05:27:11.510Z,6.79
2019-03-26T05:28:11.499Z,6.78
2019-03-26T05:29:11.512Z,6.81
2019-03-26T05:30:11.476Z,6.78
2019-03-26T05:31:11.469Z,6.85
2019-03-26T05:32:11.465Z,6.79
2019-03-26T05:33:11.443Z,6.79
2019-03-26T05:34:11.454Z,6.89
2019-03-26T05:35:11.419Z,6.81
2019-03-26T05:36:11.409Z,6.85
2019-03-26T05:37:11.402Z,6.79
2019-03-26T05:38:11.401Z,6.89
2019-03-26T05:39:11.406Z,6.89
2019-03-26T05:40:11.365Z,6.86
2019-03-26T05:41:11.367Z,6.88
2019-03-26T05:42:11.349Z,6.88
2019-03-26T05:43:11.337Z,6.83
2019-03-26T05:44:11.324Z,6.89
2019-03-26T05:45:11.339Z,6.86
2019-03-26T05:46:11.300Z,6.91
2019-03-26T05:47:11.293Z,6.99
2019-03-26T05:48:11.278Z,6.91
2019-03-26T05:49:11.272Z,6.96
2019-03-26T05:50:11.281Z,6.91
2019-03-26T05:51:11.261Z,7.03
2019-03-26T05:52:11.233Z,6.97
2019-03-26T05:53:11.223Z,6.99
2019-03-26T05:54:11.216Z,7.00
2019-03-26T05:55:11.229Z,7.00
2019-03-26T05:56:11.191Z,6.85
2019-03-26T05:57:11.187Z,6.99
2019-03-26T05:58:11.171Z,6.88
2019-03-26T05:59:11.173Z,6.96
2019-03-26T06:00:11.169Z,6.96
2019-03-26T06:01:11.146Z,7.01
2019-03-26T06:02:15.189Z,6.96
2019-03-26T06:03:12.117Z,6.92
2019-03-26T06:04:11.105Z,6.89
2019-03-26T06:05:11.115Z,6.88
2019-03-26T06:06:11.091Z,6.92
2019-03-26T06:07:11.072Z,6.88
2019-03-26T06:08:11.064Z,6.92
2019-03-26T06:09:11.064Z,6.92
2019-03-26T06:10:11.044Z,6.82
2019-03-26T06:11:11.065Z,6.85
2019-03-26T06:12:11.019Z,6.86
2019-03-26T06:13:11.034Z,6.85
2019-03-26T06:14:10.999Z,6.99
2019-03-26T06:15:10.985Z,6.85
2019-03-26T06:16:10.997Z,6.88
2019-03-26T06:17:10.962Z,6.96
2019-03-26T06:18:10.960Z,6.93
2019-03-26T06:19:10.944Z,6.97
2019-03-26T06:20:10.931Z,6.99
2019-03-26T06:21:10.939Z,6.93
2019-03-26T06:22:10.913Z,7.03
2019-03-26T06:23:10.902Z,6.97
2019-03-26T06:24:10.917Z,7.01
2019-03-26T06:25:10.885Z,6.97
2019-03-26T06:26:10.887Z,6.99
2019-03-26T06:27:10.858Z,6.97
2019-03-26T06:28:10.849Z,7.01
2019-03-26T06:29:10.843Z,7.00
2019-03-26T06:30:10.851Z,6.91
2019-03-26T06:31:10.843Z,7.00
2019-03-26T06:32:10.806Z,6.97
2019-03-26T06:33:10.791Z,6.92
2019-03-26T06:34:10.787Z,7.04
2019-03-26T06:35:10.803Z,6.93
2019-03-26T06:36:10.759Z,7.07
2019-03-26T06:37:17.884Z,7.00
2019-03-26T06:38:11.734Z,7.08
2019-03-26T06:39:10.727Z,6.99
2019-03-26T06:40:10.716Z,7.03
2019-03-26T06:41:10.736Z,7.06
2019-03-26T06:42:10.718Z,7.06
2019-03-26T06:43:10.686Z,7.00
2019-03-26T06:44:10.674Z,7.01
2019-03-26T06:45:10.662Z,6.99
2019-03-26T06:46:10.650Z,7.00
2019-03-26T06:47:10.670Z,7.03
2019-03-26T06:48:10.632Z,6.97
2019-03-26T06:49:10.617Z,6.97
2019-03-26T06:50:10.624Z,6.99
2019-03-26T06:51:10.598Z,7.06
2019-03-26T06:52:10.590Z,6.99
2019-03-26T06:53:10.611Z,7.00
2019-03-26T06:54:10.600Z,7.03
2019-03-26T06:55:10.553Z,6.99
2019-03-26T06:56:10.540Z,6.99
2019-03-26T06:57:10.530Z,6.97
2019-03-26T06:58:10.539Z,6.99
2019-03-26T06:59:10.558Z,7.03
2019-03-26T07:00:10.500Z,6.96
2019-03-26T07:01:10.488Z,7.03
2019-03-26T07:02:10.479Z,7.03
2019-03-26T07:03:10.493Z,7.04
2019-03-26T07:04:10.456Z,7.04
2019-03-26T07:05:10.445Z,7.13
2019-03-26T07:06:10.444Z,7.01
2019-03-26T07:07:10.423Z,7.15
2019-03-26T07:08:10.417Z,7.04
2019-03-26T07:09:10.423Z,7.04
2019-03-26T07:10:10.396Z,7.04
2019-03-26T07:11:10.434Z,7.04
2019-03-26T07:12:10.372Z,7.11
2019-03-26T07:13:10.362Z,7.04
2019-03-26T07:14:10.367Z,7.15
2019-03-26T07:15:10.343Z,7.10
2019-03-26T07:16:10.333Z,7.10
2019-03-26T07:17:10.315Z,7.06
2019-03-26T07:18:10.304Z,7.07
2019-03-26T07:19:10.311Z,7.10
2019-03-26T07:20:10.288Z,7.10
2019-03-26T07:21:10.285Z,7.10
2019-03-26T07:22:10.260Z,7.11
2019-03-26T07:23:10.311Z,7.08
2019-03-26T07:24:10.255Z,7.08
2019-03-26T07:25:10.226Z,7.10
2019-03-26T07:26:10.215Z,7.15
2019-03-26T07:27:10.213Z,7.24
2019-03-26T07:28:10.204Z,7.22
2019-03-26T07:29:10.213Z,7.18
2019-03-26T07:30:10.233Z,7.22
2019-03-26T07:31:10.160Z,7.26
2019-03-26T07:32:10.269Z,7.24
2019-03-26T07:33:10.238Z,7.28
2019-03-26T07:34:10.130Z,7.37
2019-03-26T07:35:10.278Z,7.26
2019-03-26T07:36:10.106Z,7.26
2019-03-26T07:37:10.098Z,7.24
2019-03-26T07:38:10.095Z,7.24
2019-03-26T07:39:10.085Z,7.28
2019-03-26T07:40:10.093Z,7.33
2019-03-26T07:41:10.100Z,7.24
2019-03-26T07:42:10.114Z,7.29
2019-03-26T07:43:10.138Z,7.28
2019-03-26T07:44:10.082Z,7.33
2019-03-26T07:45:10.072Z,7.33
2019-03-26T07:46:10.140Z,7.25
2019-03-26T07:47:09.988Z,7.29
2019-03-26T07:48:09.976Z,7.49
2019-03-26T07:49:09.968Z,7.60
2019-03-26T07:50:10.014Z,7.76
2019-03-26T07:51:09.947Z,7.77
2019-03-26T07:52:09.933Z,7.68
2019-03-26T07:53:09.923Z,7.66
2019-03-26T07:54:09.914Z,7.52
2019-03-26T07:55:09.900Z,7.34
2019-03-26T07:56:09.907Z,7.36
2019-03-26T07:57:09.893Z,7.43
2019-03-26T07:58:09.954Z,7.40
2019-03-26T07:59:09.860Z,7.43
2019-03-26T08:00:09.846Z,7.36
2019-03-26T08:01:09.857Z,7.44
2019-03-26T08:02:09.831Z,7.39
2019-03-26T08:03:09.815Z,7.61
2019-03-26T08:04:12.430Z,7.58
2019-03-26T08:05:09.792Z,7.58
2019-03-26T08:06:09.802Z,7.55
2019-03-26T08:07:09.772Z,7.58
2019-03-26T08:08:09.760Z,7.64
2019-03-26T08:09:09.799Z,7.57
2019-03-26T08:10:09.738Z,7.55
2019-03-26T08:11:09.747Z,7.57
2019-03-26T08:12:09.719Z,7.55
2019-03-26T08:13:09.720Z,7.50
2019-03-26T08:14:09.701Z,7.61
2019-03-26T08:15:09.694Z,7.61
2019-03-26T08:16:09.730Z,7.55
2019-03-26T08:17:09.660Z,7.58
2019-03-26T08:18:09.725Z,7.66
2019-03-26T08:19:09.643Z,7.73
2019-03-26T08:20:12.447Z,7.73
2019-03-26T08:21:09.618Z,7.81
2019-03-26T08:22:09.634Z,7.86
2019-03-26T08:23:09.592Z,7.80
2019-03-26T08:24:09.581Z,7.81
2019-03-26T08:25:09.576Z,7.81
2019-03-26T08:26:09.561Z,7.91
2019-03-26T08:27:09.572Z,7.88
2019-03-26T08:28:09.569Z,7.92
2019-03-26T08:29:09.538Z,8.10
2019-03-26T08:30:09.526Z,8.10
2019-03-26T08:31:09.509Z,8.12
2019-03-26T08:32:09.524Z,8.12
2019-03-26T08:33:09.482Z,8.09
2019-03-26T08:34:09.501Z,8.26
2019-03-26T08:35:16.487Z,8.42
2019-03-26T08:36:09.471Z,8.52
2019-03-26T08:37:09.444Z,8.52
2019-03-26T08:38:13.096Z,8.49
2019-03-26T08:39:09.418Z,8.52
2019-03-26T08:40:09.416Z,8.53
2019-03-26T08:41:09.399Z,8.71
2019-03-26T08:42:09.392Z,8.83
2019-03-26T08:43:09.402Z,8.81
2019-03-26T08:44:09.365Z,8.83
2019-03-26T08:45:09.355Z,8.83
2019-03-26T08:46:09.353Z,8.86
2019-03-26T08:47:09.340Z,8.96
2019-03-26T08:48:09.364Z,8.95
2019-03-26T08:49:09.322Z,9.11
2019-03-26T08:50:09.305Z,9.12
2019-03-26T08:51:09.292Z,8.85
2019-03-26T08:52:09.277Z,8.83
2019-03-26T08:53:09.288Z,8.83
2019-03-26T08:54:09.258Z,8.83
2019-03-26T08:55:09.246Z,8.75
2019-03-26T08:56:09.237Z,8.75
2019-03-26T08:57:09.227Z,8.83
2019-03-26T08:58:09.236Z,8.86
2019-03-26T08:59:09.208Z,8.93
2019-03-26T09:00:09.190Z,9.01
2019-03-26T09:01:09.182Z,9.03
2019-03-26T09:02:09.167Z,9.06
2019-03-26T09:03:09.154Z,9.12
2019-03-26T09:04:09.162Z,9.34
2019-03-26T09:05:09.131Z,9.40
2019-03-26T09:06:09.122Z,9.41
2019-03-26T09:07:11.052Z,9.27
2019-03-26T09:08:09.105Z,8.99
2019-03-26T09:09:09.194Z,9.08
2019-03-26T09:10:09.081Z,9.08
2019-03-26T09:11:09.069Z,9.26
2019-03-26T09:12:09.058Z,9.12
2019-03-26T09:13:09.045Z,9.06
2019-03-26T09:14:09.053Z,9.14
2019-03-26T09:15:09.026Z,9.30
2019-03-26T09:16:09.021Z,9.51
2019-03-26T09:17:09.004Z,9.69
2019-03-26T09:18:08.993Z,9.73
2019-03-26T09:19:09.004Z,9.83
2019-03-26T09:20:08.969Z,9.77
2019-03-26T09:21:08.964Z,9.93
2019-03-26T09:22:08.961Z,9.90
2019-03-26T09:23:12.071Z,9.94
2019-03-26T09:24:08.928Z,9.96
2019-03-26T09:25:08.933Z,9.69
2019-03-26T09:26:08.903Z,9.57
2019-03-26T09:27:08.899Z,9.29
2019-03-26T09:28:08.881Z,9.19
2019-03-26T09:29:08.895Z,9.26
2019-03-26T09:30:08.866Z,9.33
2019-03-26T09:31:08.860Z,9.52
2019-03-26T09:32:08.844Z,9.73
2019-03-26T09:33:08.830Z,9.83
2019-03-26T09:34:10.018Z,10.12
2019-03-26T09:35:08.804Z,10.34
2019-03-26T09:36:08.869Z,10.35
2019-03-26T09:37:08.785Z,10.52
2019-03-26T09:38:08.775Z,10.58
2019-03-26T09:39:08.779Z,10.05
2019-03-26T09:40:08.795Z,9.77
2019-03-26T09:41:08.744Z,9.55
2019-03-26T09:42:08.729Z,9.36
2019-03-26T09:44:15.989Z,9.37
2019-03-26T09:45:08.716Z,9.45
2019-03-26T09:46:08.689Z,9.40
2019-03-26T09:47:16.231Z,9.34
2019-03-26T09:48:09.683Z,9.34
2019-03-26T09:49:08.660Z,9.32
2019-03-26T09:50:08.661Z,9.34
2019-03-26T09:51:10.833Z,9.45
2019-03-26T09:52:08.624Z,9.55
2019-03-26T09:53:08.618Z,9.70
2019-03-26T09:54:08.603Z,10.31
2019-03-26T09:55:08.625Z,10.82
2019-03-26T09:56:08.602Z,11.11
2019-03-26T09:57:08.569Z,11.99
2019-03-26T09:58:08.558Z,11.18
2019-03-26T09:59:08.554Z,11.31
2019-03-26T10:00:08.538Z,12.90
2019-03-26T10:01:08.546Z,12.03
2019-03-26T10:02:08.518Z,12.62
2019-03-26T10:03:08.517Z,13.29
2019-03-26T10:04:08.494Z,13.19
2019-03-26T10:05:08.477Z,12.63
2019-03-26T10:06:08.499Z,12.66
2019-03-26T10:07:20.497Z,12.21
2019-03-26T10:08:09.444Z,12.30
2019-03-26T10:09:08.433Z,11.95
2019-03-26T10:10:08.424Z,11.56
2019-03-26T10:11:08.432Z,10.93
2019-03-26T10:12:08.415Z,10.60
2019-03-26T10:13:08.391Z,10.17
2019-03-26T10:14:08.393Z,9.98
2019-03-26T10:15:08.369Z,9.70
2019-03-26T10:16:08.381Z,9.52
2019-03-26T10:17:08.351Z,9.51
2019-03-26T10:18:08.346Z,9.48
2019-03-26T10:19:08.325Z,9.52
2019-03-26T10:20:08.311Z,9.44
2019-03-26T10:21:08.314Z,9.36
2019-03-26T10:22:08.335Z,9.36
2019-03-26T10:23:08.278Z,9.33
2019-03-26T10:24:08.272Z,9.32
2019-03-26T10:25:10.864Z,9.27
2019-03-26T10:26:08.249Z,9.27
2019-03-26T10:27:08.311Z,9.32
2019-03-26T10:28:08.226Z,9.26
2019-03-26T10:29:24.028Z,9.29
2019-03-26T10:30:09.211Z,9.27
2019-03-26T10:31:08.189Z,9.30
2019-03-26T10:32:08.216Z,9.24
2019-03-26T10:33:08.168Z,9.26
2019-03-26T10:34:08.160Z,9.24
2019-03-26T10:35:08.153Z,9.23
2019-03-26T10:36:08.136Z,9.15
2019-03-26T10:37:08.148Z,9.22
2019-03-26T10:38:08.117Z,9.16
2019-03-26T10:39:08.107Z,9.09
2019-03-26T10:40:08.099Z,9.08
2019-03-26T10:41:08.085Z,9.08
2019-03-26T10:42:08.111Z,9.08
2019-03-26T10:43:08.078Z,8.96
2019-03-26T10:44:08.046Z,8.89
2019-03-26T10:45:08.047Z,8.90
2019-03-26T10:46:08.034Z,8.93
2019-03-26T10:47:08.019Z,8.93
2019-03-26T10:48:08.027Z,8.81
2019-03-26T10:49:07.998Z,8.85
2019-03-26T10:50:07.990Z,8.86
2019-03-26T10:51:07.973Z,8.80
2019-03-26T10:52:07.970Z,8.77
2019-03-26T10:53:07.978Z,8.90
2019-03-26T10:54:07.942Z,8.81
2019-03-26T10:55:07.939Z,8.85
2019-03-26T10:56:07.923Z,8.86
2019-03-26T10:57:07.917Z,8.85
2019-03-26T10:58:07.920Z,8.90
2019-03-26T10:59:07.892Z,8.96
2019-03-26T11:00:07.881Z,8.99
2019-03-26T11:01:07.864Z,8.98
2019-03-26T11:02:07.852Z,9.09
2019-03-26T11:03:07.864Z,9.09
2019-03-26T11:04:07.983Z,9.14
2019-03-26T11:05:07.823Z,9.08
2019-03-26T11:06:07.816Z,9.14
2019-03-26T11:07:07.801Z,9.23
2019-03-26T11:08:07.807Z,9.09
2019-03-26T11:09:20.012Z,8.99
2019-03-26T11:10:08.771Z,9.01
2019-03-26T11:11:07.755Z,8.95
2019-03-26T11:12:07.751Z,8.98
2019-03-26T11:13:07.751Z,8.85
2019-03-26T11:14:07.725Z,8.85
2019-03-26T11:15:07.715Z,8.98
2019-03-26T11:16:07.703Z,8.96
2019-03-26T11:17:07.703Z,8.89
2019-03-26T11:18:07.703Z,9.01
2019-03-26T11:19:07.667Z,9.06
2019-03-26T11:20:07.656Z,9.12
2019-03-26T11:21:07.657Z,9.18
2019-03-26T11:22:07.635Z,9.26
2019-03-26T11:23:07.625Z,9.32
2019-03-26T11:24:07.636Z,9.32
2019-03-26T11:25:07.598Z,9.29
2019-03-26T11:26:07.593Z,9.33
2019-03-26T11:27:15.120Z,9.48
2019-03-26T11:28:07.567Z,9.42
2019-03-26T11:29:07.579Z,9.33
2019-03-26T11:30:07.548Z,9.33
2019-03-26T11:31:07.539Z,9.29
2019-03-26T11:32:07.525Z,9.14
2019-03-26T11:33:07.510Z,9.16
2019-03-26T11:34:07.519Z,9.08
2019-03-26T11:35:07.490Z,9.06
2019-03-26T11:36:07.488Z,9.12
2019-03-26T11:37:07.467Z,8.99
2019-03-26T11:38:07.467Z,9.06
2019-03-26T11:39:07.474Z,9.09
2019-03-26T11:40:07.439Z,9.15
2019-03-26T11:41:07.431Z,9.04
2019-03-26T11:42:07.424Z,8.92
2019-03-26T11:43:07.404Z,8.95
2019-03-26T11:44:07.495Z,8.92
2019-03-26T11:45:07.383Z,9.04
2019-03-26T11:46:07.389Z,9.23
2019-03-26T11:47:07.359Z,9.36
2019-03-26T11:48:07.396Z,9.69
2019-03-26T11:49:07.345Z,10.08
2019-03-26T11:50:07.370Z,10.31
2019-03-26T11:51:07.314Z,10.36
2019-03-26T11:52:07.303Z,10.18
2019-03-26T11:53:07.295Z,10.21
2019-03-26T11:54:07.326Z,10.30
2019-03-26T11:55:07.317Z,10.61
2019-03-26T11:56:07.265Z,10.95
2019-03-26T11:57:07.324Z,11.36
2019-03-26T11:58:07.240Z,11.58
2019-03-26T11:59:07.233Z,11.40
2019-03-26T12:00:07.322Z,11.09
2019-03-26T12:01:07.205Z,10.72
2019-03-26T12:02:07.198Z,10.48
2019-03-26T12:03:07.321Z,10.28
2019-03-26T12:04:07.309Z,10.09
2019-03-26T12:05:07.184Z,10.09
2019-03-26T12:06:07.158Z,9.99
2019-03-26T12:07:07.145Z,9.80
2019-03-26T12:08:07.156Z,9.85
2019-03-26T12:09:07.121Z,9.83
2019-03-26T12:10:07.133Z,9.88
2019-03-26T12:11:07.107Z,9.77
2019-03-26T12:12:07.104Z,9.67
2019-03-26T12:13:07.074Z,9.70
2019-03-26T12:14:07.066Z,9.75
2019-03-26T12:15:07.063Z,9.73
2019-03-26T12:16:07.071Z,9.63
2019-03-26T12:17:07.040Z,9.52
2019-03-26T12:18:07.074Z,9.57
2019-03-26T12:19:07.010Z,9.51
2019-03-26T12:20:06.999Z,9.36
2019-03-26T12:21:07.005Z,9.33
2019-03-26T12:22:06.975Z,9.29
2019-03-26T12:23:06.976Z,9.33
2019-03-26T12:24:06.958Z,9.23
2019-03-26T12:25:06.946Z,9.36
2019-03-26T12:26:06.952Z,9.37
2019-03-26T12:27:06.921Z,9.41
2019-03-26T12:28:06.911Z,9.42
2019-03-26T12:29:06.911Z,9.48
2019-03-26T12:30:06.910Z,9.52
2019-03-26T12:31:06.906Z,10.03
2019-03-26T12:32:06.869Z,10.28
2019-03-26T12:33:06.865Z,10.60
2019-03-26T12:34:06.844Z,10.61
2019-03-26T12:35:06.841Z,10.93
2019-03-26T12:36:06.849Z,11.27
2019-03-26T12:37:06.823Z,11.46
2019-03-26T12:38:06.800Z,11.69
2019-03-26T12:39:06.789Z,11.89
2019-03-26T12:40:06.778Z,12.23
2019-03-26T12:41:06.816Z,12.76
2019-03-26T12:42:06.760Z,13.11
2019-03-26T12:43:06.766Z,13.79
2019-03-26T12:44:06.741Z,13.58
2019-03-26T12:45:07.278Z,13.98
2019-03-26T12:46:06.719Z,15.07
2019-03-26T12:47:06.773Z,15.15
2019-03-26T12:48:06.692Z,15.43
2019-03-26T12:49:06.681Z,15.17
2019-03-26T12:50:06.678Z,14.71
2019-03-26T12:51:06.705Z,14.12
2019-03-26T12:52:06.669Z,13.76
2019-03-26T12:53:06.638Z,13.42
2019-03-26T12:54:06.626Z,12.79
2019-03-26T12:55:06.619Z,12.23
2019-03-26T12:56:06.613Z,11.67
2019-03-26T12:57:06.631Z,11.33
2019-03-26T12:58:06.584Z,11.09
2019-03-26T12:59:06.569Z,10.86
2019-03-26T13:00:06.561Z,10.75
2019-03-26T13:01:06.549Z,10.67
2019-03-26T13:02:06.602Z,10.62
2019-03-26T13:03:06.530Z,10.36
2019-03-26T13:04:12.561Z,10.35
2019-03-26T13:05:07.525Z,10.31
2019-03-26T13:06:06.498Z,10.28
2019-03-26T13:07:06.485Z,10.23
2019-03-26T13:08:06.496Z,10.21
2019-03-26T13:09:06.496Z,10.03
2019-03-26T13:10:13.665Z,9.90
2019-03-26T13:11:07.449Z,9.77
2019-03-26T13:12:06.435Z,9.78
2019-03-26T13:13:06.442Z,9.55
2019-03-26T13:14:06.405Z,9.65
2019-03-26T13:15:06.396Z,9.73
2019-03-26T13:16:06.384Z,9.69